createdAt,value
2022-12-23T00:00:59.463Z,76.12
2022-12-23T00:03:28.221Z,75.79
2022-12-23T00:05:56.299Z,75.71
2022-12-23T00:08:26.140Z,75.81
2022-12-23T00:10:54.987Z,75.89
2022-12-23T00:13:41.541Z,75.81
2022-12-23T00:16:12.463Z,75.58
2022-12-23T00:18:40.890Z,75.81
2022-12-23T00:21:11.767Z,75.83
2022-12-23T00:23:42.374Z,75.64
2022-12-23T00:26:28.791Z,75.55
2022-12-23T00:28:58.615Z,75.55
2022-12-23T00:31:26.667Z,75.45
2022-12-23T00:33:54.592Z,75.27
2022-12-23T00:36:24.887Z,75.17
2022-12-23T00:39:12.102Z,75.34
2022-12-23T00:41:58.988Z,75.40
2022-12-23T00:44:26.817Z,75.08
2022-12-23T00:46:54.592Z,75.10
2022-12-23T00:49:41.578Z,75.17
2022-12-23T00:52:15.463Z,75.48
2022-12-23T00:54:43.348Z,75.44
2022-12-23T00:57:11.594Z,75.21
2022-12-23T00:59:39.462Z,75.38
2022-12-23T01:02:26.159Z,75.58
2022-12-23T01:05:12.904Z,75.38
2022-12-23T01:07:42.500Z,75.07
2022-12-23T01:10:10.672Z,74.70
2022-12-23T01:12:38.508Z,74.38
2022-12-23T01:15:07.177Z,73.98
2022-12-23T01:17:34.936Z,73.88
2022-12-23T01:20:03.083Z,73.35
2022-12-23T01:22:30.872Z,73.08
2022-12-23T01:24:58.566Z,72.48
2022-12-23T01:27:26.390Z,72.37
2022-12-23T01:29:54.150Z,72.19
2022-12-23T01:32:21.882Z,71.99
2022-12-23T01:34:49.682Z,72.21
2022-12-23T01:37:17.898Z,72.28
2022-12-23T01:39:45.826Z,72.59
2022-12-23T01:42:37.555Z,72.86
2022-12-23T01:45:08.347Z,72.66
2022-12-23T01:47:55.842Z,72.55
2022-12-23T01:50:28.772Z,73.03
2022-12-23T01:53:18.157Z,73.00
2022-12-23T01:56:00.400Z,72.61
2022-12-23T01:58:30.696Z,72.43
2022-12-23T02:01:17.703Z,72.58
2022-12-23T02:03:46.856Z,72.42
2022-12-23T02:06:39.347Z,72.27
2022-12-23T02:09:18.496Z,72.36
2022-12-23T02:12:28.230Z,72.28
2022-12-23T02:15:52.181Z,72.25
2022-12-23T02:18:41.571Z,71.99
2022-12-23T02:21:16.591Z,71.88
2022-12-23T02:24:03.110Z,71.49
2022-12-23T02:26:39.713Z,71.30
2022-12-23T02:29:29.471Z,71.24
2022-12-23T02:32:19.196Z,71.11
2022-12-23T02:35:35.458Z,70.55
2022-12-23T02:38:22.421Z,70.42
2022-12-23T02:40:59.032Z,70.17
2022-12-23T02:43:57.071Z,70.20
2022-12-23T02:46:37.013Z,70.12
2022-12-23T02:49:15.546Z,70.11
2022-12-23T02:51:50.519Z,70.35
2022-12-23T02:54:25.032Z,70.82
2022-12-23T02:56:54.181Z,71.03
2022-12-23T02:59:25.649Z,71.19
2022-12-23T03:01:54.264Z,71.55
2022-12-23T03:04:22.192Z,71.61
2022-12-23T03:06:52.192Z,71.30
2022-12-23T03:09:58.762Z,71.20
2022-12-23T03:13:08.039Z,71.20
2022-12-23T03:15:38.640Z,70.74
2022-12-23T03:18:29.747Z,70.76
2022-12-23T03:21:05.381Z,70.96
2022-12-23T03:23:37.871Z,70.79
2022-12-23T03:26:11.684Z,70.93
2022-12-23T03:28:59.171Z,70.91
2022-12-23T03:35:53.063Z,71.07
2022-12-23T03:38:22.030Z,71.02
2022-12-23T03:40:53.817Z,70.78
2022-12-23T03:43:35.321Z,70.76
2022-12-23T03:46:12.993Z,70.54
2022-12-23T03:48:45.657Z,70.52
2022-12-23T03:51:26.319Z,70.37
2022-12-23T03:54:01.256Z,70.68
2022-12-23T03:56:32.324Z,70.56
2022-12-23T03:59:03.658Z,70.59
2022-12-23T04:01:49.939Z,70.50
2022-12-23T04:04:32.969Z,70.65
2022-12-23T04:07:09.393Z,70.42
2022-12-23T04:09:37.806Z,70.39
2022-12-23T04:12:05.896Z,70.26
2022-12-23T04:14:34.500Z,70.42
2022-12-23T04:17:02.792Z,70.32
2022-12-23T04:19:30.524Z,70.31
2022-12-23T04:21:58.295Z,70.26
2022-12-23T04:24:26.040Z,70.21
2022-12-23T04:26:53.730Z,70.28
2022-12-23T04:29:21.566Z,70.07
2022-12-23T04:31:49.354Z,70.06
2022-12-23T04:34:17.170Z,70.10
2022-12-23T04:36:45.016Z,70.11
2022-12-23T04:39:12.753Z,70.18
2022-12-23T04:41:40.518Z,70.08
2022-12-23T04:44:08.996Z,69.99
2022-12-23T04:46:37.099Z,69.93
2022-12-23T04:49:05.345Z,69.76
2022-12-23T04:51:33.083Z,69.64
2022-12-23T04:54:00.835Z,69.86
2022-12-23T04:56:28.616Z,69.82
2022-12-23T04:58:56.380Z,69.83
2022-12-23T05:01:24.336Z,70.08
2022-12-23T05:03:52.212Z,70.28
2022-12-23T05:06:19.962Z,70.31
2022-12-23T05:08:47.687Z,70.16
2022-12-23T05:11:15.400Z,70.07
2022-12-23T05:13:43.362Z,69.99
2022-12-23T05:16:11.301Z,70.11
2022-12-23T05:18:39.085Z,70.05
2022-12-23T05:21:06.882Z,70.15
2022-12-23T05:23:34.838Z,70.06
2022-12-23T05:26:02.552Z,70.03
2022-12-23T05:28:30.566Z,69.87
2022-12-23T05:31:06.331Z,69.79
2022-12-23T05:33:34.875Z,69.82
2022-12-23T05:36:03.150Z,69.94
2022-12-23T05:38:30.996Z,69.89
2022-12-23T05:40:59.055Z,69.86
2022-12-23T05:43:26.796Z,70.01
2022-12-23T05:45:55.013Z,70.03
2022-12-23T05:48:22.934Z,70.03
2022-12-23T05:50:51.691Z,70.09
2022-12-23T05:53:20.567Z,70.11
2022-12-23T05:55:48.516Z,70.08
2022-12-23T05:58:16.959Z,70.07
2022-12-23T06:00:44.758Z,70.02
2022-12-23T06:03:12.844Z,70.24
2022-12-23T06:05:43.409Z,70.33
2022-12-23T06:08:11.296Z,70.43
2022-12-23T06:10:39.046Z,70.36
2022-12-23T06:13:06.805Z,70.35
2022-12-23T06:15:34.658Z,70.55
2022-12-23T06:18:02.449Z,70.47
2022-12-23T06:20:30.262Z,70.55
2022-12-23T06:22:58.058Z,70.48
2022-12-23T06:25:25.793Z,70.54
2022-12-23T06:27:53.543Z,70.47
2022-12-23T06:30:21.236Z,70.45
2022-12-23T06:32:48.976Z,70.35
2022-12-23T06:35:16.756Z,70.55
2022-12-23T06:37:44.798Z,70.60
2022-12-23T06:40:13.064Z,70.66
2022-12-23T06:42:40.857Z,70.86
2022-12-23T06:45:09.703Z,70.96
2022-12-23T06:47:37.592Z,70.92
2022-12-23T06:50:06.281Z,71.01
2022-12-23T06:52:34.017Z,71.00
2022-12-23T06:55:01.802Z,71.34
2022-12-23T06:57:29.505Z,71.33
2022-12-23T06:59:57.317Z,71.33
2022-12-23T07:02:25.169Z,71.37
2022-12-23T07:04:53.062Z,71.64
2022-12-23T07:07:20.868Z,71.60
2022-12-23T07:09:48.556Z,71.50
2022-12-23T07:12:16.617Z,71.40
2022-12-23T07:14:44.350Z,71.29
2022-12-23T07:17:12.173Z,71.35
2022-12-23T07:19:41.714Z,71.27
2022-12-23T07:22:10.361Z,71.34
2022-12-23T07:24:38.386Z,71.18
2022-12-23T07:27:06.121Z,71.48
2022-12-23T07:29:33.903Z,71.69
2022-12-23T07:32:02.550Z,71.78
2022-12-23T07:34:30.556Z,71.71
2022-12-23T07:36:58.328Z,71.71
2022-12-23T07:39:26.138Z,71.84
2022-12-23T07:42:09.323Z,71.87
2022-12-23T07:44:41.643Z,72.04
2022-12-23T07:47:10.037Z,72.22
2022-12-23T07:49:37.781Z,72.28
2022-12-23T07:52:05.565Z,72.20
2022-12-23T07:54:33.407Z,72.11
2022-12-23T07:57:01.309Z,72.03
2022-12-23T07:59:29.228Z,71.88
2022-12-23T08:01:57.109Z,71.89
2022-12-23T08:04:25.069Z,71.94
2022-12-23T08:06:53.028Z,72.12
2022-12-23T08:09:20.794Z,72.40
2022-12-23T08:11:48.553Z,72.37
2022-12-23T08:14:16.293Z,72.46
2022-12-23T08:16:44.592Z,72.32
2022-12-23T08:19:12.389Z,72.35
2022-12-23T08:21:40.077Z,72.40
2022-12-23T08:24:08.010Z,72.47
2022-12-23T08:26:35.740Z,72.55
2022-12-23T08:29:03.704Z,72.60
2022-12-23T08:31:34.406Z,72.53
2022-12-23T08:34:02.240Z,72.65
2022-12-23T08:36:32.368Z,72.91
2022-12-23T08:39:02.908Z,72.61
2022-12-23T08:41:33.505Z,72.29
2022-12-23T08:44:01.293Z,72.29
2022-12-23T08:46:29.379Z,72.26
2022-12-23T08:48:57.556Z,72.12
2022-12-23T08:51:26.223Z,72.29
2022-12-23T08:54:00.891Z,72.35
2022-12-23T08:56:33.053Z,72.38
2022-12-23T08:59:01.347Z,72.11
2022-12-23T09:01:31.577Z,72.09
2022-12-23T09:04:03.619Z,71.96
2022-12-23T09:06:49.651Z,71.78
2022-12-23T09:09:17.538Z,71.79
2022-12-23T09:11:45.292Z,71.90
2022-12-23T09:14:14.139Z,71.86
2022-12-23T09:16:44.439Z,71.96
2022-12-23T09:19:12.226Z,71.99
2022-12-23T09:21:39.961Z,72.08
2022-12-23T09:24:07.908Z,72.04
2022-12-23T09:26:35.694Z,72.03
2022-12-23T09:29:03.532Z,71.71
2022-12-23T09:31:36.536Z,71.71
2022-12-23T09:34:06.083Z,71.60
2022-12-23T09:36:34.095Z,71.74
2022-12-23T09:39:02.116Z,71.79
2022-12-23T09:41:52.428Z,72.10
2022-12-23T09:44:29.378Z,72.33
2022-12-23T09:47:02.642Z,72.48
2022-12-23T09:49:30.996Z,72.52
2022-12-23T09:52:02.267Z,72.60
2022-12-23T09:54:36.377Z,72.69
2022-12-23T09:57:16.732Z,72.81
2022-12-23T09:59:56.677Z,72.87
2022-12-23T10:02:32.299Z,73.04
2022-12-23T10:05:13.271Z,72.83
2022-12-23T10:07:47.771Z,72.91
2022-12-23T10:10:29.164Z,72.96
2022-12-23T10:12:58.674Z,72.82
2022-12-23T10:15:35.247Z,73.01
2022-12-23T10:18:10.638Z,72.73
2022-12-23T10:20:46.378Z,72.98
2022-12-23T10:23:18.272Z,73.07
2022-12-23T10:25:52.681Z,73.25
2022-12-23T10:28:20.509Z,73.12
2022-12-23T10:34:22.740Z,73.42
2022-12-23T10:36:59.811Z,73.12
2022-12-23T10:39:44.290Z,73.30
2022-12-23T10:42:11.967Z,73.41
2022-12-23T10:44:54.146Z,73.88
2022-12-23T10:47:49.148Z,73.87
2022-12-23T10:50:40.153Z,74.15
2022-12-23T10:53:11.264Z,74.27
2022-12-23T10:55:39.318Z,74.37
2022-12-23T10:58:13.663Z,74.47
2022-12-23T11:00:45.717Z,74.45
2022-12-23T11:03:19.557Z,74.61
2022-12-23T11:05:50.453Z,74.73
2022-12-23T11:08:19.935Z,74.91
2022-12-23T11:10:48.319Z,75.08
2022-12-23T11:13:37.060Z,75.36
2022-12-23T11:20:44.521Z,76.19
2022-12-23T11:23:30.761Z,76.87
2022-12-23T11:26:07.119Z,77.02
2022-12-23T11:28:48.712Z,76.92
2022-12-23T11:31:26.017Z,77.18
2022-12-23T11:34:05.688Z,77.33
2022-12-23T11:36:34.285Z,77.28
2022-12-23T11:39:15.637Z,77.63
2022-12-23T11:41:48.423Z,77.75
2022-12-23T11:44:44.277Z,77.77
2022-12-23T11:47:35.094Z,77.63
2022-12-23T11:50:27.784Z,77.68
2022-12-23T11:53:01.759Z,77.56
2022-12-23T11:55:32.890Z,77.39
2022-12-23T11:58:01.717Z,77.36
2022-12-23T12:00:40.362Z,77.45
2022-12-23T12:03:16.594Z,77.57
2022-12-23T12:05:54.417Z,77.82
2022-12-23T12:08:25.538Z,77.70
2022-12-23T12:10:53.944Z,77.69
2022-12-23T12:13:29.982Z,77.68
2022-12-23T12:16:23.910Z,77.37
2022-12-23T12:18:55.815Z,77.34
2022-12-23T12:21:28.899Z,76.77
2022-12-23T12:24:18.228Z,76.62
2022-12-23T12:27:01.492Z,76.17
2022-12-23T12:29:31.475Z,76.25
2022-12-23T12:32:00.375Z,76.03
2022-12-23T12:34:49.583Z,76.31
2022-12-23T12:37:51.570Z,76.26
2022-12-23T12:40:32.853Z,76.33
2022-12-23T12:43:25.002Z,76.51
2022-12-23T12:45:59.786Z,76.76
2022-12-23T12:48:49.621Z,76.22
2022-12-23T12:51:50.399Z,76.18
2022-12-23T12:54:25.967Z,76.54
2022-12-23T12:56:56.193Z,76.57
2022-12-23T12:59:38.144Z,76.29
2022-12-23T13:02:21.879Z,75.97
2022-12-23T13:05:09.404Z,76.05
2022-12-23T13:07:50.945Z,76.09
2022-12-23T13:10:46.857Z,76.14
2022-12-23T13:13:49.927Z,76.35
2022-12-23T13:17:05.182Z,76.34
2022-12-23T13:20:10.723Z,76.15
2022-12-23T13:22:39.328Z,76.19
2022-12-23T13:25:17.896Z,76.23
2022-12-23T13:28:26.806Z,76.08
2022-12-23T13:31:10.140Z,76.12
2022-12-23T13:33:46.769Z,75.88
2022-12-23T13:36:31.281Z,75.85
2022-12-23T13:39:12.751Z,75.80
2022-12-23T13:41:44.088Z,75.55
2022-12-23T13:44:13.639Z,75.55
2022-12-23T13:47:15.891Z,75.36
2022-12-23T13:49:56.266Z,75.37
2022-12-23T13:52:56.497Z,75.39
2022-12-23T13:55:42.866Z,75.45
2022-12-23T13:58:16.682Z,75.22
2022-12-23T14:00:44.880Z,75.21
2022-12-23T14:03:23.057Z,75.37
2022-12-23T14:05:52.666Z,75.22
2022-12-23T14:08:20.480Z,75.93
2022-12-23T14:10:54.995Z,76.19
2022-12-23T14:13:24.951Z,76.51
2022-12-23T14:16:01.962Z,76.81
2022-12-23T14:18:36.557Z,77.36
2022-12-23T14:21:04.624Z,77.60
2022-12-23T14:24:08.978Z,77.91
2022-12-23T14:26:44.421Z,78.35
2022-12-23T14:29:24.829Z,78.39
2022-12-23T14:31:57.197Z,78.63
2022-12-23T14:34:32.933Z,78.51
2022-12-23T14:37:25.173Z,78.66
2022-12-23T14:39:53.633Z,78.63
2022-12-23T14:42:40.334Z,78.53
2022-12-23T14:45:33.263Z,78.67
2022-12-23T14:48:02.311Z,78.69
2022-12-23T14:50:33.361Z,78.74
2022-12-23T14:53:20.596Z,78.49
2022-12-23T14:55:50.239Z,78.72
2022-12-23T14:58:17.942Z,78.79
2022-12-23T15:01:09.929Z,78.79
2022-12-23T15:03:44.863Z,78.82
2022-12-23T15:06:35.758Z,78.83
2022-12-23T15:09:05.445Z,78.73
2022-12-23T15:11:35.279Z,78.56
2022-12-23T15:14:09.451Z,78.66
2022-12-23T15:16:39.785Z,78.56
2022-12-23T15:19:27.932Z,78.37
2022-12-23T15:22:19.900Z,78.22
2022-12-23T15:24:51.665Z,78.28
2022-12-23T15:27:29.573Z,78.09
2022-12-23T15:29:58.389Z,78.16
2022-12-23T15:32:26.846Z,78.29
2022-12-23T15:35:06.503Z,78.35
2022-12-23T15:37:34.911Z,78.42
2022-12-23T15:40:12.077Z,78.62
2022-12-23T15:42:48.812Z,78.79
2022-12-23T15:45:40.716Z,78.51
2022-12-23T15:48:27.623Z,78.58
2022-12-23T15:51:08.240Z,78.46
2022-12-23T15:53:38.361Z,78.39
2022-12-23T15:56:17.613Z,78.12
2022-12-23T15:58:45.772Z,78.06
2022-12-23T16:01:17.881Z,77.75
2022-12-23T16:03:52.868Z,76.97
2022-12-23T16:06:29.829Z,77.07
2022-12-23T16:09:04.709Z,76.94
2022-12-23T16:11:47.971Z,76.84
2022-12-23T16:14:31.161Z,77.10
2022-12-23T16:17:01.228Z,76.92
2022-12-23T16:19:52.803Z,77.17
2022-12-23T16:22:20.597Z,77.37
2022-12-23T16:25:08.053Z,77.48
2022-12-23T16:27:50.636Z,77.75
2022-12-23T16:30:26.611Z,77.59
2022-12-23T16:32:56.636Z,77.26
2022-12-23T16:35:32.296Z,77.44
2022-12-23T16:38:16.752Z,77.33
2022-12-23T16:40:46.694Z,77.15
2022-12-23T16:43:15.035Z,77.15
2022-12-23T16:45:43.850Z,77.31
2022-12-23T16:48:25.393Z,77.28
2022-12-23T16:50:53.829Z,76.95
2022-12-23T16:53:21.587Z,76.84
2022-12-23T16:55:56.636Z,76.71
2022-12-23T16:58:28.671Z,76.71
2022-12-23T17:00:56.536Z,76.51
2022-12-23T17:03:24.372Z,76.54
2022-12-23T17:05:52.062Z,76.57
2022-12-23T17:08:20.678Z,76.39
2022-12-23T17:10:48.498Z,76.23
2022-12-23T17:13:18.251Z,75.80
2022-12-23T17:15:46.010Z,75.72
2022-12-23T17:18:16.578Z,75.80
2022-12-23T17:20:45.638Z,75.87
2022-12-23T17:23:32.554Z,75.82
2022-12-23T17:26:00.690Z,75.85
2022-12-23T17:28:31.927Z,75.27
2022-12-23T17:31:00.012Z,75.07
2022-12-23T17:33:30.290Z,75.28
2022-12-23T17:35:58.486Z,75.26
2022-12-23T17:38:29.028Z,75.39
2022-12-23T17:40:58.584Z,75.28
2022-12-23T17:43:26.753Z,75.09
2022-12-23T17:45:54.637Z,74.91
2022-12-23T17:48:26.656Z,74.91
2022-12-23T17:50:59.087Z,74.64
2022-12-23T17:53:26.953Z,74.48
2022-12-23T17:55:56.903Z,74.40
2022-12-23T17:58:27.836Z,74.11
2022-12-23T18:00:56.301Z,74.48
2022-12-23T18:03:25.054Z,74.49
2022-12-23T18:05:59.365Z,74.54
2022-12-23T18:08:30.027Z,75.00
2022-12-23T18:10:58.502Z,75.14
2022-12-23T18:13:26.452Z,74.95
2022-12-23T18:15:54.187Z,74.81
2022-12-23T18:18:32.151Z,74.64
2022-12-23T18:21:06.615Z,74.39
2022-12-23T18:23:37.364Z,74.36
2022-12-23T18:26:07.097Z,74.35
2022-12-23T18:28:35.531Z,74.23
2022-12-23T18:31:03.462Z,74.15
2022-12-23T18:33:31.721Z,74.23
2022-12-23T18:35:59.500Z,74.18
2022-12-23T18:38:27.299Z,74.11
2022-12-23T18:40:56.606Z,74.06
2022-12-23T18:43:25.378Z,73.89
2022-12-23T18:45:54.102Z,73.90
2022-12-23T18:48:22.177Z,73.70
2022-12-23T18:50:50.000Z,73.92
2022-12-23T18:53:25.308Z,73.90
2022-12-23T18:55:54.594Z,73.89
2022-12-23T18:58:23.310Z,73.78
2022-12-23T19:00:52.860Z,73.67
2022-12-23T19:03:24.814Z,73.70
2022-12-23T19:05:53.148Z,73.83
2022-12-23T19:08:26.740Z,73.82
2022-12-23T19:10:55.850Z,73.90
2022-12-23T19:13:23.852Z,74.08
2022-12-23T19:15:52.427Z,74.28
2022-12-23T19:18:21.806Z,74.13
2022-12-23T19:20:49.878Z,74.08
2022-12-23T19:23:18.241Z,74.26
2022-12-23T19:25:54.388Z,74.08
2022-12-23T19:28:22.809Z,74.16
2022-12-23T19:30:50.897Z,74.30
2022-12-23T19:33:18.924Z,74.36
2022-12-23T19:35:46.764Z,74.36
2022-12-23T19:38:14.550Z,74.12
2022-12-23T19:40:42.549Z,74.21
2022-12-23T19:43:10.281Z,74.54
2022-12-23T19:45:38.045Z,74.65
2022-12-23T19:48:05.946Z,74.48
2022-12-23T19:50:33.858Z,74.54
2022-12-23T19:53:01.754Z,74.30
2022-12-23T19:55:29.622Z,74.08
2022-12-23T19:57:57.607Z,74.39
2022-12-23T20:00:25.735Z,74.73
2022-12-23T20:02:58.725Z,74.62
2022-12-23T20:05:27.146Z,74.71
2022-12-23T20:07:55.001Z,74.51
2022-12-23T20:10:22.754Z,74.43
2022-12-23T20:12:50.648Z,74.07
2022-12-23T20:15:18.578Z,73.77
2022-12-23T20:17:46.325Z,73.50
2022-12-23T20:20:14.200Z,73.20
2022-12-23T20:22:42.011Z,73.41
2022-12-23T20:25:09.970Z,73.54
2022-12-23T20:27:38.912Z,73.81
2022-12-23T20:30:07.322Z,73.75
2022-12-23T20:32:35.127Z,73.39
2022-12-23T20:35:02.951Z,73.08
2022-12-23T20:37:30.922Z,73.11
2022-12-23T20:39:58.692Z,72.93
2022-12-23T20:42:28.032Z,73.01
2022-12-23T20:44:55.785Z,72.82
2022-12-23T20:47:23.512Z,73.12
2022-12-23T20:49:51.456Z,73.49
2022-12-23T20:52:19.279Z,73.63
2022-12-23T20:54:47.014Z,73.74
2022-12-23T20:57:14.897Z,73.79
2022-12-23T20:59:42.863Z,73.68
2022-12-23T21:02:13.224Z,73.49
2022-12-23T21:04:41.383Z,73.56
2022-12-23T21:07:09.393Z,73.32
2022-12-23T21:09:37.217Z,73.44
2022-12-23T21:12:05.829Z,73.75
2022-12-23T21:14:33.723Z,73.74
2022-12-23T21:17:01.478Z,73.45
2022-12-23T21:19:30.413Z,73.46
2022-12-23T21:21:58.228Z,73.58
2022-12-23T21:24:26.117Z,73.54
2022-12-23T21:26:56.901Z,73.63
2022-12-23T21:29:25.723Z,73.67
2022-12-23T21:31:55.117Z,73.77
2022-12-23T21:34:23.353Z,73.97
2022-12-23T21:36:51.174Z,73.98
2022-12-23T21:39:19.939Z,73.79
2022-12-23T21:41:50.923Z,73.87
2022-12-23T21:44:18.739Z,73.88
2022-12-23T21:46:46.494Z,73.93
2022-12-23T21:49:14.495Z,74.00
2022-12-23T21:51:42.396Z,74.20
2022-12-23T21:54:11.379Z,74.09
2022-12-23T21:56:39.840Z,74.14
2022-12-23T21:59:12.834Z,73.79
2022-12-23T22:01:41.927Z,73.75
2022-12-23T22:04:10.200Z,73.71
2022-12-23T22:06:41.069Z,73.62
2022-12-23T22:09:11.243Z,73.71
2022-12-23T22:11:39.255Z,73.60
2022-12-23T22:14:08.435Z,73.40
2022-12-23T22:16:36.555Z,73.55
2022-12-23T22:19:06.370Z,73.53
2022-12-23T22:21:34.858Z,73.71
2022-12-23T22:24:03.346Z,73.76
2022-12-23T22:26:32.299Z,73.69
2022-12-23T22:29:02.376Z,73.67
2022-12-23T22:31:43.005Z,73.57
2022-12-23T22:34:19.435Z,73.59
2022-12-23T22:36:47.482Z,73.38
2022-12-23T22:39:20.634Z,73.49
2022-12-23T22:41:50.624Z,73.61
2022-12-23T22:44:19.423Z,73.62
2022-12-23T22:46:47.280Z,73.63
2022-12-23T22:49:15.748Z,73.63
2022-12-23T22:51:43.841Z,73.50
2022-12-23T22:54:11.922Z,73.31
2022-12-23T22:56:39.690Z,73.20
2022-12-23T22:59:07.531Z,73.27
2022-12-23T23:01:36.345Z,73.05
2022-12-23T23:04:04.980Z,73.16
2022-12-23T23:06:34.988Z,72.99
2022-12-23T23:09:03.082Z,73.03
2022-12-23T23:11:30.988Z,72.99
2022-12-23T23:13:58.765Z,73.07
2022-12-23T23:16:27.027Z,73.17
2022-12-23T23:18:54.846Z,72.92
2022-12-23T23:21:22.642Z,73.00
2022-12-23T23:23:50.721Z,72.98
2022-12-23T23:26:19.513Z,72.93
2022-12-23T23:28:48.060Z,73.25
2022-12-23T23:34:03.919Z,73.20
2022-12-23T23:36:31.837Z,73.22
2022-12-23T23:38:59.580Z,73.00
2022-12-23T23:41:27.458Z,72.94
2022-12-23T23:43:55.348Z,72.71
2022-12-23T23:46:23.317Z,72.47
2022-12-23T23:48:51.143Z,72.27
2022-12-23T23:51:19.251Z,72.56
2022-12-23T23:53:47.318Z,73.02
2022-12-23T23:56:21.935Z,72.88
2022-12-23T23:58:53.002Z,72.65
